sensor_id;sensor_type;location;lat;lon;timestamp;P1;durP1;ratioP1;P2;durP2;ratioP2
4021;SDS011;2025;48.260;16.432;2022-10-16T00:00:37;96.78;;;52.38;;
4021;SDS011;2025;48.260;16.432;2022-10-16T00:03:06;105.82;;;54.15;;
4021;SDS011;2025;48.260;16.432;2022-10-16T00:05:37;104.57;;;54.33;;
4021;SDS011;2025;48.260;16.432;2022-10-16T00:08:06;79.05;;;43.90;;
4021;SDS011;2025;48.260;16.432;2022-10-16T00:10:33;69.75;;;42.28;;
4021;SDS011;2025;48.260;16.432;2022-10-16T00:13:02;62.53;;;37.92;;
4021;SDS011;2025;48.260;16.432;2022-10-16T00:15:29;574.33;;;48.17;;
4021;SDS011;2025;48.260;16.432;2022-10-16T00:17:56;73.97;;;41.67;;
4021;SDS011;2025;48.260;16.432;2022-10-16T00:20:24;83.60;;;46.58;;
4021;SDS011;2025;48.260;16.432;2022-10-16T00:22:51;64.72;;;37.28;;
4021;SDS011;2025;48.260;16.432;2022-10-16T00:25:18;63.08;;;37.67;;
4021;SDS011;2025;48.260;16.432;2022-10-16T00:27:45;67.55;;;40.55;;
4021;SDS011;2025;48.260;16.432;2022-10-16T00:30:13;66.97;;;42.55;;
4021;SDS011;2025;48.260;16.432;2022-10-16T00:32:40;88.70;;;48.17;;
4021;SDS011;2025;48.260;16.432;2022-10-16T00:35:07;95.28;;;53.17;;
4021;SDS011;2025;48.260;16.432;2022-10-16T00:37:34;125.45;;;61.95;;
4021;SDS011;2025;48.260;16.432;2022-10-16T00:40:02;115.25;;;56.15;;
4021;SDS011;2025;48.260;16.432;2022-10-16T00:42:29;99.45;;;52.25;;
4021;SDS011;2025;48.260;16.432;2022-10-16T00:44:57;89.07;;;45.88;;
4021;SDS011;2025;48.260;16.432;2022-10-16T00:47:26;102.90;;;53.80;;
4021;SDS011;2025;48.260;16.432;2022-10-16T00:49:58;130.73;;;54.88;;
4021;SDS011;2025;48.260;16.432;2022-10-16T00:52:28;98.90;;;53.95;;
4021;SDS011;2025;48.260;16.432;2022-10-16T00:54:55;104.00;;;53.80;;
4021;SDS011;2025;48.260;16.432;2022-10-16T00:57:24;123.60;;;62.30;;
4021;SDS011;2025;48.260;16.432;2022-10-16T00:59:51;392.33;;;42.47;;
4021;SDS011;2025;48.260;16.432;2022-10-16T01:02:20;88.38;;;42.78;;
4021;SDS011;2025;48.260;16.432;2022-10-16T01:04:50;95.47;;;51.85;;
4021;SDS011;2025;48.260;16.432;2022-10-16T01:07:20;86.72;;;49.33;;
4021;SDS011;2025;48.260;16.432;2022-10-16T01:10:03;98.07;;;52.67;;
4021;SDS011;2025;48.260;16.432;2022-10-16T01:12:39;95.60;;;50.90;;
4021;SDS011;2025;48.260;16.432;2022-10-16T01:15:10;95.95;;;50.50;;
4021;SDS011;2025;48.260;16.432;2022-10-16T01:17:43;81.47;;;46.33;;
4021;SDS011;2025;48.260;16.432;2022-10-16T01:20:18;63.03;;;39.60;;
4021;SDS011;2025;48.260;16.432;2022-10-16T01:23:05;86.85;;;42.55;;
4021;SDS011;2025;48.260;16.432;2022-10-16T01:25:48;789.17;;;57.25;;
4021;SDS011;2025;48.260;16.432;2022-10-16T01:28:39;150.98;;;57.20;;
4021;SDS011;2025;48.260;16.432;2022-10-16T01:31:13;97.20;;;53.72;;
4021;SDS011;2025;48.260;16.432;2022-10-16T01:33:45;92.22;;;49.45;;
4021;SDS011;2025;48.260;16.432;2022-10-16T01:36:17;83.18;;;43.58;;
4021;SDS011;2025;48.260;16.432;2022-10-16T01:38:49;109.40;;;55.22;;
4021;SDS011;2025;48.260;16.432;2022-10-16T01:41:21;99.82;;;51.38;;
4021;SDS011;2025;48.260;16.432;2022-10-16T01:43:53;89.63;;;45.83;;
4021;SDS011;2025;48.260;16.432;2022-10-16T01:46:26;75.07;;;43.75;;
4021;SDS011;2025;48.260;16.432;2022-10-16T01:48:54;72.05;;;42.83;;
4021;SDS011;2025;48.260;16.432;2022-10-16T01:51:22;86.85;;;46.28;;
4021;SDS011;2025;48.260;16.432;2022-10-16T01:53:52;71.82;;;43.55;;
4021;SDS011;2025;48.260;16.432;2022-10-16T01:56:21;129.27;;;44.42;;
4021;SDS011;2025;48.260;16.432;2022-10-16T01:58:51;124.55;;;44.80;;
4021;SDS011;2025;48.260;16.432;2022-10-16T02:01:24;79.97;;;46.63;;
4021;SDS011;2025;48.260;16.432;2022-10-16T02:03:55;91.18;;;51.33;;
4021;SDS011;2025;48.260;16.432;2022-10-16T02:06:25;127.90;;;50.25;;
4021;SDS011;2025;48.260;16.432;2022-10-16T02:08:52;114.45;;;46.85;;
4021;SDS011;2025;48.260;16.432;2022-10-16T02:11:20;102.90;;;49.75;;
4021;SDS011;2025;48.260;16.432;2022-10-16T02:13:48;88.55;;;51.00;;
4021;SDS011;2025;48.260;16.432;2022-10-16T02:16:21;93.82;;;50.47;;
4021;SDS011;2025;48.260;16.432;2022-10-16T02:18:58;100.38;;;53.22;;
4021;SDS011;2025;48.260;16.432;2022-10-16T02:21:25;89.70;;;48.63;;
4021;SDS011;2025;48.260;16.432;2022-10-16T02:23:57;85.20;;;47.22;;
4021;SDS011;2025;48.260;16.432;2022-10-16T02:26:30;88.30;;;52.17;;
4021;SDS011;2025;48.260;16.432;2022-10-16T02:29:04;83.47;;;48.58;;
4021;SDS011;2025;48.260;16.432;2022-10-16T02:34:05;82.55;;;50.53;;
4021;SDS011;2025;48.260;16.432;2022-10-16T02:36:33;110.00;;;58.65;;
4021;SDS011;2025;48.260;16.432;2022-10-16T02:39:02;109.47;;;59.33;;
4021;SDS011;2025;48.260;16.432;2022-10-16T02:41:30;106.10;;;54.00;;
4021;SDS011;2025;48.260;16.432;2022-10-16T02:43:58;119.22;;;60.88;;
4021;SDS011;2025;48.260;16.432;2022-10-16T02:46:25;112.32;;;57.30;;
4021;SDS011;2025;48.260;16.432;2022-10-16T02:48:53;100.25;;;54.40;;
4021;SDS011;2025;48.260;16.432;2022-10-16T02:51:20;125.18;;;62.45;;
4021;SDS011;2025;48.260;16.432;2022-10-16T02:53:47;122.88;;;59.30;;
4021;SDS011;2025;48.260;16.432;2022-10-16T02:56:14;95.05;;;51.75;;
4021;SDS011;2025;48.260;16.432;2022-10-16T02:58:41;91.82;;;51.63;;
4021;SDS011;2025;48.260;16.432;2022-10-16T03:01:08;99.18;;;53.60;;
4021;SDS011;2025;48.260;16.432;2022-10-16T03:03:37;109.25;;;57.92;;
4021;SDS011;2025;48.260;16.432;2022-10-16T03:06:06;100.32;;;55.63;;
4021;SDS011;2025;48.260;16.432;2022-10-16T03:08:33;81.18;;;48.88;;
4021;SDS011;2025;48.260;16.432;2022-10-16T03:11:00;89.72;;;49.28;;
4021;SDS011;2025;48.260;16.432;2022-10-16T03:13:27;97.50;;;52.60;;
4021;SDS011;2025;48.260;16.432;2022-10-16T03:15:54;76.10;;;45.30;;
4021;SDS011;2025;48.260;16.432;2022-10-16T03:18:21;79.30;;;45.90;;
4021;SDS011;2025;48.260;16.432;2022-10-16T03:20:48;88.22;;;50.08;;
4021;SDS011;2025;48.260;16.432;2022-10-16T03:23:16;70.32;;;44.08;;
4021;SDS011;2025;48.260;16.432;2022-10-16T03:25:43;76.78;;;46.22;;
4021;SDS011;2025;48.260;16.432;2022-10-16T03:28:10;82.53;;;49.00;;
4021;SDS011;2025;48.260;16.432;2022-10-16T03:30:37;85.68;;;49.47;;
4021;SDS011;2025;48.260;16.432;2022-10-16T03:33:04;78.57;;;47.78;;
4021;SDS011;2025;48.260;16.432;2022-10-16T03:35:32;68.25;;;42.38;;
4021;SDS011;2025;48.260;16.432;2022-10-16T03:37:59;71.78;;;43.28;;
4021;SDS011;2025;48.260;16.432;2022-10-16T03:40:28;66.43;;;40.63;;
4021;SDS011;2025;48.260;16.432;2022-10-16T03:42:57;88.37;;;50.13;;
4021;SDS011;2025;48.260;16.432;2022-10-16T03:45:24;111.30;;;58.78;;
4021;SDS011;2025;48.260;16.432;2022-10-16T03:47:51;146.38;;;69.20;;
4021;SDS011;2025;48.260;16.432;2022-10-16T03:50:18;137.43;;;68.35;;
4021;SDS011;2025;48.260;16.432;2022-10-16T03:52:45;70.93;;;43.63;;
4021;SDS011;2025;48.260;16.432;2022-10-16T03:55:12;69.82;;;43.85;;
4021;SDS011;2025;48.260;16.432;2022-10-16T03:57:41;79.78;;;48.47;;
4021;SDS011;2025;48.260;16.432;2022-10-16T04:00:08;103.22;;;56.33;;
4021;SDS011;2025;48.260;16.432;2022-10-16T04:02:36;74.25;;;43.85;;
4021;SDS011;2025;48.260;16.432;2022-10-16T04:05:04;79.80;;;46.15;;
4021;SDS011;2025;48.260;16.432;2022-10-16T04:07:31;73.85;;;45.20;;
4021;SDS011;2025;48.260;16.432;2022-10-16T04:09:58;89.25;;;53.03;;
4021;SDS011;2025;48.260;16.432;2022-10-16T04:12:25;97.68;;;54.67;;
4021;SDS011;2025;48.260;16.432;2022-10-16T04:14:54;166.40;;;77.50;;
4021;SDS011;2025;48.260;16.432;2022-10-16T04:17:20;166.75;;;81.35;;
4021;SDS011;2025;48.260;16.432;2022-10-16T04:19:48;160.77;;;78.25;;
4021;SDS011;2025;48.260;16.432;2022-10-16T04:22:15;155.68;;;74.15;;
4021;SDS011;2025;48.260;16.432;2022-10-16T04:24:42;128.73;;;66.60;;
4021;SDS011;2025;48.260;16.432;2022-10-16T04:27:09;117.75;;;62.58;;
4021;SDS011;2025;48.260;16.432;2022-10-16T04:29:36;139.90;;;68.25;;
4021;SDS011;2025;48.260;16.432;2022-10-16T04:32:04;137.20;;;68.35;;
4021;SDS011;2025;48.260;16.432;2022-10-16T04:34:31;132.75;;;64.30;;
4021;SDS011;2025;48.260;16.432;2022-10-16T04:36:58;133.82;;;67.55;;
4021;SDS011;2025;48.260;16.432;2022-10-16T04:39:25;133.52;;;67.38;;
4021;SDS011;2025;48.260;16.432;2022-10-16T04:41:52;114.35;;;57.35;;
4021;SDS011;2025;48.260;16.432;2022-10-16T04:44:19;87.72;;;49.25;;
4021;SDS011;2025;48.260;16.432;2022-10-16T04:46:46;106.85;;;57.30;;
4021;SDS011;2025;48.260;16.432;2022-10-16T04:49:14;107.95;;;50.65;;
4021;SDS011;2025;48.260;16.432;2022-10-16T04:51:41;114.13;;;58.70;;
4021;SDS011;2025;48.260;16.432;2022-10-16T04:54:08;122.68;;;61.85;;
4021;SDS011;2025;48.260;16.432;2022-10-16T04:56:36;103.72;;;56.05;;
4021;SDS011;2025;48.260;16.432;2022-10-16T04:59:08;92.82;;;51.30;;
4021;SDS011;2025;48.260;16.432;2022-10-16T05:01:35;400.35;;;50.72;;
4021;SDS011;2025;48.260;16.432;2022-10-16T05:04:02;91.15;;;51.92;;
4021;SDS011;2025;48.260;16.432;2022-10-16T05:06:30;116.72;;;58.30;;
4021;SDS011;2025;48.260;16.432;2022-10-16T05:08:58;98.13;;;52.10;;
4021;SDS011;2025;48.260;16.432;2022-10-16T05:11:24;77.97;;;46.33;;
4021;SDS011;2025;48.260;16.432;2022-10-16T05:13:52;96.13;;;48.50;;
4021;SDS011;2025;48.260;16.432;2022-10-16T05:16:19;123.70;;;44.28;;
4021;SDS011;2025;48.260;16.432;2022-10-16T05:18:46;271.50;;;45.05;;
4021;SDS011;2025;48.260;16.432;2022-10-16T05:21:12;95.93;;;53.88;;
4021;SDS011;2025;48.260;16.432;2022-10-16T05:23:41;104.88;;;56.08;;
4021;SDS011;2025;48.260;16.432;2022-10-16T05:26:08;116.65;;;63.03;;
4021;SDS011;2025;48.260;16.432;2022-10-16T05:28:35;109.55;;;59.60;;
4021;SDS011;2025;48.260;16.432;2022-10-16T05:31:03;113.60;;;60.03;;
4021;SDS011;2025;48.260;16.432;2022-10-16T05:33:31;125.20;;;64.80;;
4021;SDS011;2025;48.260;16.432;2022-10-16T05:36:00;142.05;;;66.57;;
4021;SDS011;2025;48.260;16.432;2022-10-16T05:38:28;176.25;;;76.70;;
4021;SDS011;2025;48.260;16.432;2022-10-16T05:40:56;214.68;;;86.10;;
4021;SDS011;2025;48.260;16.432;2022-10-16T05:43:23;230.52;;;90.88;;
4021;SDS011;2025;48.260;16.432;2022-10-16T05:45:54;269.42;;;93.38;;
4021;SDS011;2025;48.260;16.432;2022-10-16T05:48:21;260.27;;;91.75;;
4021;SDS011;2025;48.260;16.432;2022-10-16T05:50:48;289.98;;;92.70;;
4021;SDS011;2025;48.260;16.432;2022-10-16T05:53:23;325.45;;;97.72;;
4021;SDS011;2025;48.260;16.432;2022-10-16T05:55:53;355.17;;;93.28;;
4021;SDS011;2025;48.260;16.432;2022-10-16T05:58:22;344.40;;;92.78;;
4021;SDS011;2025;48.260;16.432;2022-10-16T06:00:53;315.13;;;88.78;;
4021;SDS011;2025;48.260;16.432;2022-10-16T06:05:48;438.17;;;88.43;;
4021;SDS011;2025;48.260;16.432;2022-10-16T06:08:15;575.13;;;88.05;;
4021;SDS011;2025;48.260;16.432;2022-10-16T06:10:43;795.00;;;89.88;;
4021;SDS011;2025;48.260;16.432;2022-10-16T06:13:10;719.63;;;85.13;;
4021;SDS011;2025;48.260;16.432;2022-10-16T06:15:38;752.35;;;88.22;;
4021;SDS011;2025;48.260;16.432;2022-10-16T06:18:07;654.38;;;86.47;;
4021;SDS011;2025;48.260;16.432;2022-10-16T06:20:34;609.42;;;86.57;;
4021;SDS011;2025;48.260;16.432;2022-10-16T06:23:02;559.85;;;85.95;;
4021;SDS011;2025;48.260;16.432;2022-10-16T06:25:30;569.35;;;88.90;;
4021;SDS011;2025;48.260;16.432;2022-10-16T06:27:57;422.27;;;87.50;;
4021;SDS011;2025;48.260;16.432;2022-10-16T06:30:24;430.25;;;91.88;;
4021;SDS011;2025;48.260;16.432;2022-10-16T06:32:52;323.80;;;88.75;;
4021;SDS011;2025;48.260;16.432;2022-10-16T06:35:19;308.17;;;86.85;;
4021;SDS011;2025;48.260;16.432;2022-10-16T06:37:47;285.55;;;88.13;;
4021;SDS011;2025;48.260;16.432;2022-10-16T06:40:14;249.18;;;87.22;;
4021;SDS011;2025;48.260;16.432;2022-10-16T06:42:41;249.05;;;86.22;;
4021;SDS011;2025;48.260;16.432;2022-10-16T06:45:08;266.88;;;90.03;;
4021;SDS011;2025;48.260;16.432;2022-10-16T06:47:36;251.23;;;88.93;;
4021;SDS011;2025;48.260;16.432;2022-10-16T06:50:05;243.57;;;87.70;;
4021;SDS011;2025;48.260;16.432;2022-10-16T06:52:33;244.43;;;89.03;;
4021;SDS011;2025;48.260;16.432;2022-10-16T06:55:00;228.20;;;86.07;;
4021;SDS011;2025;48.260;16.432;2022-10-16T06:57:27;221.20;;;83.18;;
4021;SDS011;2025;48.260;16.432;2022-10-16T06:59:55;215.63;;;83.10;;
4021;SDS011;2025;48.260;16.432;2022-10-16T07:02:22;185.63;;;78.22;;
4021;SDS011;2025;48.260;16.432;2022-10-16T07:04:49;195.88;;;77.10;;
4021;SDS011;2025;48.260;16.432;2022-10-16T07:07:17;173.98;;;75.35;;
4021;SDS011;2025;48.260;16.432;2022-10-16T07:09:44;184.82;;;74.07;;
4021;SDS011;2025;48.260;16.432;2022-10-16T07:12:11;203.85;;;77.47;;
4021;SDS011;2025;48.260;16.432;2022-10-16T07:14:38;201.20;;;77.55;;
4021;SDS011;2025;48.260;16.432;2022-10-16T07:17:05;197.23;;;79.95;;
4021;SDS011;2025;48.260;16.432;2022-10-16T07:19:32;237.32;;;83.50;;
4021;SDS011;2025;48.260;16.432;2022-10-16T07:21:59;236.52;;;82.88;;
4021;SDS011;2025;48.260;16.432;2022-10-16T07:24:28;229.90;;;80.53;;
4021;SDS011;2025;48.260;16.432;2022-10-16T07:26:55;247.35;;;86.70;;
4021;SDS011;2025;48.260;16.432;2022-10-16T07:29:22;245.85;;;87.40;;
4021;SDS011;2025;48.260;16.432;2022-10-16T07:31:49;248.98;;;86.65;;
4021;SDS011;2025;48.260;16.432;2022-10-16T07:34:17;243.13;;;85.30;;
4021;SDS011;2025;48.260;16.432;2022-10-16T07:36:47;242.30;;;87.18;;
4021;SDS011;2025;48.260;16.432;2022-10-16T07:39:14;218.10;;;84.60;;
4021;SDS011;2025;48.260;16.432;2022-10-16T07:41:43;222.52;;;84.15;;
4021;SDS011;2025;48.260;16.432;2022-10-16T07:44:10;205.10;;;82.75;;
4021;SDS011;2025;48.260;16.432;2022-10-16T07:46:37;212.10;;;81.68;;
4021;SDS011;2025;48.260;16.432;2022-10-16T07:49:08;203.20;;;82.60;;
4021;SDS011;2025;48.260;16.432;2022-10-16T07:51:36;204.25;;;84.20;;
4021;SDS011;2025;48.260;16.432;2022-10-16T07:54:03;209.02;;;82.30;;
4021;SDS011;2025;48.260;16.432;2022-10-16T07:56:30;210.45;;;84.50;;
4021;SDS011;2025;48.260;16.432;2022-10-16T07:58:59;214.43;;;85.45;;
4021;SDS011;2025;48.260;16.432;2022-10-16T08:01:26;211.88;;;88.18;;
4021;SDS011;2025;48.260;16.432;2022-10-16T08:03:53;205.15;;;89.38;;
4021;SDS011;2025;48.260;16.432;2022-10-16T08:06:21;196.18;;;87.38;;
4021;SDS011;2025;48.260;16.432;2022-10-16T08:08:48;197.20;;;85.38;;
4021;SDS011;2025;48.260;16.432;2022-10-16T08:11:16;197.98;;;86.95;;
4021;SDS011;2025;48.260;16.432;2022-10-16T08:13:43;198.30;;;88.53;;
4021;SDS011;2025;48.260;16.432;2022-10-16T08:16:11;200.40;;;87.75;;
4021;SDS011;2025;48.260;16.432;2022-10-16T08:18:39;211.70;;;90.45;;
4021;SDS011;2025;48.260;16.432;2022-10-16T08:21:10;197.65;;;91.03;;
4021;SDS011;2025;48.260;16.432;2022-10-16T08:23:40;177.80;;;88.47;;
4021;SDS011;2025;48.260;16.432;2022-10-16T08:26:09;177.68;;;88.40;;
4021;SDS011;2025;48.260;16.432;2022-10-16T08:28:37;177.18;;;88.93;;
4021;SDS011;2025;48.260;16.432;2022-10-16T08:31:05;173.48;;;89.53;;
4021;SDS011;2025;48.260;16.432;2022-10-16T08:33:34;180.77;;;91.57;;
4021;SDS011;2025;48.260;16.432;2022-10-16T08:36:02;161.35;;;84.72;;
4021;SDS011;2025;48.260;16.432;2022-10-16T08:38:29;147.23;;;80.07;;
4021;SDS011;2025;48.260;16.432;2022-10-16T08:40:57;154.63;;;82.63;;
4021;SDS011;2025;48.260;16.432;2022-10-16T08:43:46;157.13;;;82.25;;
4021;SDS011;2025;48.260;16.432;2022-10-16T08:46:36;159.20;;;84.70;;
4021;SDS011;2025;48.260;16.432;2022-10-16T08:49:15;153.60;;;85.20;;
4021;SDS011;2025;48.260;16.432;2022-10-16T08:51:42;163.55;;;87.07;;
4021;SDS011;2025;48.260;16.432;2022-10-16T08:54:15;161.32;;;87.18;;
4021;SDS011;2025;48.260;16.432;2022-10-16T08:56:49;154.77;;;84.95;;
4021;SDS011;2025;48.260;16.432;2022-10-16T08:59:16;149.45;;;83.43;;
4021;SDS011;2025;48.260;16.432;2022-10-16T09:01:45;139.50;;;78.35;;
4021;SDS011;2025;48.260;16.432;2022-10-16T09:04:27;140.38;;;82.57;;
4021;SDS011;2025;48.260;16.432;2022-10-16T09:07:09;146.30;;;82.75;;
4021;SDS011;2025;48.260;16.432;2022-10-16T09:09:49;149.00;;;81.90;;
4021;SDS011;2025;48.260;16.432;2022-10-16T09:12:26;133.73;;;78.80;;
4021;SDS011;2025;48.260;16.432;2022-10-16T09:15:01;140.20;;;78.55;;
4021;SDS011;2025;48.260;16.432;2022-10-16T09:17:38;142.20;;;78.80;;
4021;SDS011;2025;48.260;16.432;2022-10-16T09:23:07;144.80;;;75.80;;
4021;SDS011;2025;48.260;16.432;2022-10-16T09:25:45;143.00;;;78.57;;
4021;SDS011;2025;48.260;16.432;2022-10-16T09:28:16;138.77;;;77.80;;
4021;SDS011;2025;48.260;16.432;2022-10-16T09:30:44;129.80;;;72.97;;
4021;SDS011;2025;48.260;16.432;2022-10-16T09:33:13;121.10;;;71.75;;
4021;SDS011;2025;48.260;16.432;2022-10-16T09:35:43;114.80;;;68.43;;
4021;SDS011;2025;48.260;16.432;2022-10-16T09:38:20;118.53;;;69.32;;
4021;SDS011;2025;48.260;16.432;2022-10-16T09:40:49;110.70;;;68.45;;
4021;SDS011;2025;48.260;16.432;2022-10-16T09:43:19;114.80;;;67.32;;
4021;SDS011;2025;48.260;16.432;2022-10-16T09:45:56;113.57;;;69.13;;
4021;SDS011;2025;48.260;16.432;2022-10-16T09:48:25;113.70;;;69.22;;
4021;SDS011;2025;48.260;16.432;2022-10-16T09:50:57;104.83;;;64.80;;
4021;SDS011;2025;48.260;16.432;2022-10-16T09:53:25;108.13;;;66.75;;
4021;SDS011;2025;48.260;16.432;2022-10-16T09:56:05;111.20;;;66.88;;
4021;SDS011;2025;48.260;16.432;2022-10-16T09:58:32;105.05;;;63.72;;
4021;SDS011;2025;48.260;16.432;2022-10-16T10:00:59;102.40;;;62.75;;
4021;SDS011;2025;48.260;16.432;2022-10-16T10:03:35;98.40;;;62.50;;
4021;SDS011;2025;48.260;16.432;2022-10-16T10:06:16;96.05;;;58.42;;
4021;SDS011;2025;48.260;16.432;2022-10-16T10:08:53;93.72;;;54.95;;
4021;SDS011;2025;48.260;16.432;2022-10-16T10:11:42;80.88;;;53.15;;
4021;SDS011;2025;48.260;16.432;2022-10-16T10:14:19;84.47;;;54.15;;
4021;SDS011;2025;48.260;16.432;2022-10-16T10:16:51;85.68;;;53.33;;
4021;SDS011;2025;48.260;16.432;2022-10-16T10:19:20;80.43;;;49.70;;
4021;SDS011;2025;48.260;16.432;2022-10-16T10:21:50;78.40;;;49.58;;
4021;SDS011;2025;48.260;16.432;2022-10-16T10:24:18;74.32;;;48.65;;
4021;SDS011;2025;48.260;16.432;2022-10-16T10:26:54;74.55;;;50.15;;
4021;SDS011;2025;48.260;16.432;2022-10-16T10:29:31;71.97;;;47.25;;
4021;SDS011;2025;48.260;16.432;2022-10-16T10:32:12;70.47;;;45.70;;
4021;SDS011;2025;48.260;16.432;2022-10-16T10:34:51;65.80;;;43.33;;
4021;SDS011;2025;48.260;16.432;2022-10-16T10:37:32;66.93;;;45.47;;
4021;SDS011;2025;48.260;16.432;2022-10-16T10:40:16;68.13;;;45.90;;
4021;SDS011;2025;48.260;16.432;2022-10-16T10:42:57;62.88;;;44.95;;
4021;SDS011;2025;48.260;16.432;2022-10-16T10:45:35;59.65;;;42.85;;
4021;SDS011;2025;48.260;16.432;2022-10-16T10:51:18;55.28;;;39.75;;
4021;SDS011;2025;48.260;16.432;2022-10-16T10:53:54;50.95;;;38.40;;
4021;SDS011;2025;48.260;16.432;2022-10-16T10:56:41;54.10;;;39.10;;
4021;SDS011;2025;48.260;16.432;2022-10-16T10:59:19;48.22;;;37.20;;
4021;SDS011;2025;48.260;16.432;2022-10-16T11:02:04;47.95;;;36.65;;
4021;SDS011;2025;48.260;16.432;2022-10-16T11:07:30;47.33;;;36.60;;
4021;SDS011;2025;48.260;16.432;2022-10-16T11:10:03;44.38;;;37.13;;
4021;SDS011;2025;48.260;16.432;2022-10-16T11:12:39;45.58;;;34.92;;
4021;SDS011;2025;48.260;16.432;2022-10-16T11:15:11;42.20;;;33.80;;
4021;SDS011;2025;48.260;16.432;2022-10-16T11:20:13;47.53;;;34.35;;
4021;SDS011;2025;48.260;16.432;2022-10-16T11:22:45;45.78;;;32.30;;
4021;SDS011;2025;48.260;16.432;2022-10-16T11:25:20;42.28;;;34.22;;
4021;SDS011;2025;48.260;16.432;2022-10-16T11:27:50;37.65;;;32.75;;
4021;SDS011;2025;48.260;16.432;2022-10-16T11:30:24;37.30;;;31.10;;
4021;SDS011;2025;48.260;16.432;2022-10-16T11:32:56;36.83;;;31.35;;
4021;SDS011;2025;48.260;16.432;2022-10-16T11:35:37;41.55;;;31.23;;
4021;SDS011;2025;48.260;16.432;2022-10-16T11:38:12;38.20;;;31.95;;
4021;SDS011;2025;48.260;16.432;2022-10-16T11:40:46;42.60;;;32.35;;
4021;SDS011;2025;48.260;16.432;2022-10-16T11:43:17;40.55;;;33.05;;
4021;SDS011;2025;48.260;16.432;2022-10-16T11:45:50;43.22;;;33.53;;
4021;SDS011;2025;48.260;16.432;2022-10-16T11:48:22;45.17;;;33.67;;
4021;SDS011;2025;48.260;16.432;2022-10-16T11:50:54;43.50;;;33.08;;
4021;SDS011;2025;48.260;16.432;2022-10-16T11:53:30;45.67;;;35.90;;
4021;SDS011;2025;48.260;16.432;2022-10-16T11:56:09;40.75;;;33.83;;
4021;SDS011;2025;48.260;16.432;2022-10-16T12:01:13;47.63;;;34.60;;
4021;SDS011;2025;48.260;16.432;2022-10-16T12:03:46;47.63;;;34.60;;
4021;SDS011;2025;48.260;16.432;2022-10-16T12:06:25;44.42;;;35.53;;
4021;SDS011;2025;48.260;16.432;2022-10-16T12:08:58;43.67;;;33.75;;
4021;SDS011;2025;48.260;16.432;2022-10-16T12:11:35;43.05;;;33.75;;
4021;SDS011;2025;48.260;16.432;2022-10-16T12:14:04;42.92;;;34.55;;
4021;SDS011;2025;48.260;16.432;2022-10-16T12:16:53;44.97;;;33.63;;
4021;SDS011;2025;48.260;16.432;2022-10-16T12:19:22;43.53;;;33.00;;
4021;SDS011;2025;48.260;16.432;2022-10-16T12:21:52;42.65;;;33.25;;
4021;SDS011;2025;48.260;16.432;2022-10-16T12:24:27;40.20;;;31.95;;
4021;SDS011;2025;48.260;16.432;2022-10-16T12:27:01;40.03;;;32.08;;
4021;SDS011;2025;48.260;16.432;2022-10-16T12:29:32;41.95;;;32.78;;
4021;SDS011;2025;48.260;16.432;2022-10-16T12:32:02;45.15;;;34.97;;
4021;SDS011;2025;48.260;16.432;2022-10-16T12:34:34;48.67;;;34.80;;
4021;SDS011;2025;48.260;16.432;2022-10-16T12:37:12;47.22;;;35.90;;
4021;SDS011;2025;48.260;16.432;2022-10-16T12:39:45;41.63;;;34.03;;
4021;SDS011;2025;48.260;16.432;2022-10-16T12:42:22;46.22;;;35.42;;
4021;SDS011;2025;48.260;16.432;2022-10-16T12:44:57;42.22;;;34.58;;
4021;SDS011;2025;48.260;16.432;2022-10-16T12:47:35;48.38;;;35.47;;
4021;SDS011;2025;48.260;16.432;2022-10-16T12:50:21;42.90;;;34.58;;
4021;SDS011;2025;48.260;16.432;2022-10-16T12:52:51;43.88;;;34.42;;
4021;SDS011;2025;48.260;16.432;2022-10-16T12:55:19;43.45;;;32.65;;
4021;SDS011;2025;48.260;16.432;2022-10-16T12:57:55;42.75;;;33.70;;
4021;SDS011;2025;48.260;16.432;2022-10-16T13:00:42;39.08;;;31.45;;
4021;SDS011;2025;48.260;16.432;2022-10-16T13:03:22;42.17;;;31.38;;
4021;SDS011;2025;48.260;16.432;2022-10-16T13:06:15;44.72;;;30.70;;
4021;SDS011;2025;48.260;16.432;2022-10-16T13:08:58;41.28;;;30.38;;
4021;SDS011;2025;48.260;16.432;2022-10-16T13:11:45;37.90;;;31.58;;
4021;SDS011;2025;48.260;16.432;2022-10-16T13:14:47;41.00;;;30.90;;
4021;SDS011;2025;48.260;16.432;2022-10-16T13:17:30;36.13;;;30.35;;
4021;SDS011;2025;48.260;16.432;2022-10-16T13:20:06;39.42;;;29.95;;
4021;SDS011;2025;48.260;16.432;2022-10-16T13:22:45;43.28;;;30.80;;
4021;SDS011;2025;48.260;16.432;2022-10-16T13:25:22;41.83;;;31.02;;
4021;SDS011;2025;48.260;16.432;2022-10-16T13:27:59;37.42;;;30.65;;
4021;SDS011;2025;48.260;16.432;2022-10-16T13:30:29;43.10;;;30.30;;
4021;SDS011;2025;48.260;16.432;2022-10-16T13:33:01;36.75;;;29.63;;
4021;SDS011;2025;48.260;16.432;2022-10-16T13:35:31;40.17;;;30.75;;
4021;SDS011;2025;48.260;16.432;2022-10-16T13:38:03;36.30;;;29.92;;
4021;SDS011;2025;48.260;16.432;2022-10-16T13:40:48;41.13;;;30.10;;
4021;SDS011;2025;48.260;16.432;2022-10-16T13:43:16;38.22;;;28.98;;
4021;SDS011;2025;48.260;16.432;2022-10-16T13:45:53;40.10;;;29.40;;
4021;SDS011;2025;48.260;16.432;2022-10-16T13:48:22;41.03;;;29.45;;
4021;SDS011;2025;48.260;16.432;2022-10-16T13:51:00;41.63;;;29.23;;
4021;SDS011;2025;48.260;16.432;2022-10-16T13:53:33;36.83;;;29.00;;
4021;SDS011;2025;48.260;16.432;2022-10-16T13:56:02;45.60;;;28.40;;
4021;SDS011;2025;48.260;16.432;2022-10-16T13:58:31;34.67;;;28.23;;
4021;SDS011;2025;48.260;16.432;2022-10-16T14:01:05;34.70;;;27.60;;
4021;SDS011;2025;48.260;16.432;2022-10-16T14:03:45;30.85;;;26.63;;
4021;SDS011;2025;48.260;16.432;2022-10-16T14:06:13;37.03;;;27.33;;
4021;SDS011;2025;48.260;16.432;2022-10-16T14:08:43;38.45;;;27.83;;
4021;SDS011;2025;48.260;16.432;2022-10-16T14:11:20;34.95;;;26.15;;
4021;SDS011;2025;48.260;16.432;2022-10-16T14:13:50;33.63;;;27.05;;
4021;SDS011;2025;48.260;16.432;2022-10-16T14:16:21;36.13;;;27.88;;
4021;SDS011;2025;48.260;16.432;2022-10-16T14:18:52;38.28;;;27.05;;
4021;SDS011;2025;48.260;16.432;2022-10-16T14:21:23;42.03;;;28.05;;
4021;SDS011;2025;48.260;16.432;2022-10-16T14:23:51;31.00;;;26.63;;
4021;SDS011;2025;48.260;16.432;2022-10-16T14:26:19;32.92;;;26.98;;
4021;SDS011;2025;48.260;16.432;2022-10-16T14:29:00;35.08;;;28.00;;
4021;SDS011;2025;48.260;16.432;2022-10-16T14:31:32;33.60;;;25.48;;
4021;SDS011;2025;48.260;16.432;2022-10-16T14:34:01;30.70;;;25.92;;
4021;SDS011;2025;48.260;16.432;2022-10-16T14:36:28;34.97;;;26.40;;
4021;SDS011;2025;48.260;16.432;2022-10-16T14:38:57;35.70;;;26.98;;
4021;SDS011;2025;48.260;16.432;2022-10-16T14:41:28;29.05;;;25.73;;
4021;SDS011;2025;48.260;16.432;2022-10-16T14:43:56;37.78;;;27.20;;
4021;SDS011;2025;48.260;16.432;2022-10-16T14:46:28;32.95;;;25.13;;
4021;SDS011;2025;48.260;16.432;2022-10-16T14:49:00;31.75;;;25.63;;
4021;SDS011;2025;48.260;16.432;2022-10-16T14:51:31;31.58;;;25.75;;
4021;SDS011;2025;48.260;16.432;2022-10-16T14:53:58;37.30;;;25.38;;
4021;SDS011;2025;48.260;16.432;2022-10-16T14:56:28;39.20;;;25.20;;
4021;SDS011;2025;48.260;16.432;2022-10-16T14:58:57;32.22;;;27.00;;
4021;SDS011;2025;48.260;16.432;2022-10-16T15:01:24;29.85;;;25.13;;
4021;SDS011;2025;48.260;16.432;2022-10-16T15:03:53;33.65;;;24.55;;
4021;SDS011;2025;48.260;16.432;2022-10-16T15:06:20;36.05;;;25.08;;
4021;SDS011;2025;48.260;16.432;2022-10-16T15:08:47;33.20;;;25.00;;